sensor_id;sensor_type;location;lat;lon;timestamp;P1;durP1;ratioP1;P2;durP2;ratioP2
55461;SDS011;41327;45.102;20.624;2022-09-27T00:00:13;6.38;;;4.88;;
55461;SDS011;41327;45.102;20.624;2022-09-27T00:02:39;4.90;;;4.00;;
55461;SDS011;41327;45.102;20.624;2022-09-27T00:05:05;6.95;;;5.05;;
55461;SDS011;41327;45.102;20.624;2022-09-27T00:07:30;7.38;;;5.18;;
55461;SDS011;41327;45.102;20.624;2022-09-27T00:09:56;9.52;;;4.80;;
55461;SDS011;41327;45.102;20.624;2022-09-27T00:12:21;6.72;;;4.78;;
55461;SDS011;41327;45.102;20.624;2022-09-27T00:14:47;7.00;;;5.30;;
55461;SDS011;41327;45.102;20.624;2022-09-27T00:17:12;8.15;;;5.72;;
55461;SDS011;41327;45.102;20.624;2022-09-27T00:19:38;7.80;;;5.78;;
55461;SDS011;41327;45.102;20.624;2022-09-27T00:22:03;7.70;;;5.18;;
55461;SDS011;41327;45.102;20.624;2022-09-27T00:24:29;7.28;;;5.18;;
55461;SDS011;41327;45.102;20.624;2022-09-27T00:26:55;7.28;;;5.35;;
55461;SDS011;41327;45.102;20.624;2022-09-27T00:29:21;7.05;;;5.18;;
55461;SDS011;41327;45.102;20.624;2022-09-27T00:31:47;7.72;;;5.32;;
55461;SDS011;41327;45.102;20.624;2022-09-27T00:34:20;9.57;;;5.68;;
55461;SDS011;41327;45.102;20.624;2022-09-27T00:36:50;6.32;;;5.30;;
55461;SDS011;41327;45.102;20.624;2022-09-27T00:39:16;8.25;;;5.53;;
55461;SDS011;41327;45.102;20.624;2022-09-27T00:41:42;5.95;;;4.82;;
55461;SDS011;41327;45.102;20.624;2022-09-27T00:52:01;5.03;;;4.28;;
55461;SDS011;41327;45.102;20.624;2022-09-27T00:54:35;6.30;;;5.20;;
55461;SDS011;41327;45.102;20.624;2022-09-27T00:57:03;7.03;;;5.15;;
55461;SDS011;41327;45.102;20.624;2022-09-27T00:59:29;7.22;;;4.88;;
55461;SDS011;41327;45.102;20.624;2022-09-27T01:01:56;8.05;;;4.80;;
55461;SDS011;41327;45.102;20.624;2022-09-27T01:04:23;6.95;;;5.30;;
55461;SDS011;41327;45.102;20.624;2022-09-27T01:06:50;9.80;;;5.35;;
55461;SDS011;41327;45.102;20.624;2022-09-27T01:09:16;7.57;;;5.00;;
55461;SDS011;41327;45.102;20.624;2022-09-27T01:19:50;8.27;;;5.60;;
55461;SDS011;41327;45.102;20.624;2022-09-27T01:22:28;9.27;;;5.65;;
55461;SDS011;41327;45.102;20.624;2022-09-27T01:38:21;8.50;;;5.95;;
55461;SDS011;41327;45.102;20.624;2022-09-27T01:43:55;6.90;;;4.95;;
55461;SDS011;41327;45.102;20.624;2022-09-27T01:46:26;7.88;;;5.38;;
55461;SDS011;41327;45.102;20.624;2022-09-27T01:48:58;6.80;;;4.53;;
55461;SDS011;41327;45.102;20.624;2022-09-27T01:51:28;5.65;;;4.68;;
55461;SDS011;41327;45.102;20.624;2022-09-27T01:54:03;7.30;;;5.20;;
55461;SDS011;41327;45.102;20.624;2022-09-27T02:01:35;6.60;;;4.93;;
55461;SDS011;41327;45.102;20.624;2022-09-27T02:04:02;6.10;;;4.50;;
55461;SDS011;41327;45.102;20.624;2022-09-27T02:06:31;6.30;;;4.72;;
55461;SDS011;41327;45.102;20.624;2022-09-27T02:09:01;6.80;;;4.25;;
55461;SDS011;41327;45.102;20.624;2022-09-27T02:11:32;7.65;;;4.55;;
55461;SDS011;41327;45.102;20.624;2022-09-27T02:22:06;6.65;;;4.38;;
55461;SDS011;41327;45.102;20.624;2022-09-27T02:24:52;5.80;;;4.43;;
55461;SDS011;41327;45.102;20.624;2022-09-27T02:27:23;6.88;;;4.90;;
55461;SDS011;41327;45.102;20.624;2022-09-27T02:29:56;5.45;;;4.25;;
55461;SDS011;41327;45.102;20.624;2022-09-27T02:32:24;6.55;;;4.90;;
55461;SDS011;41327;45.102;20.624;2022-09-27T02:34:51;8.45;;;4.60;;
55461;SDS011;41327;45.102;20.624;2022-09-27T02:37:17;6.70;;;4.90;;
55461;SDS011;41327;45.102;20.624;2022-09-27T02:39:43;6.95;;;4.60;;
55461;SDS011;41327;45.102;20.624;2022-09-27T02:42:09;6.03;;;3.95;;
55461;SDS011;41327;45.102;20.624;2022-09-27T02:44:34;7.40;;;4.28;;
55461;SDS011;41327;45.102;20.624;2022-09-27T02:52:43;5.80;;;4.70;;
55461;SDS011;41327;45.102;20.624;2022-09-27T03:04:01;6.32;;;4.05;;
55461;SDS011;41327;45.102;20.624;2022-09-27T03:06:28;5.35;;;3.95;;
55461;SDS011;41327;45.102;20.624;2022-09-27T03:08:54;7.00;;;4.30;;
55461;SDS011;41327;45.102;20.624;2022-09-27T03:11:21;7.07;;;4.38;;
55461;SDS011;41327;45.102;20.624;2022-09-27T03:13:46;6.03;;;4.18;;
55461;SDS011;41327;45.102;20.624;2022-09-27T03:16:12;6.43;;;4.55;;
55461;SDS011;41327;45.102;20.624;2022-09-27T03:18:40;6.90;;;4.25;;
55461;SDS011;41327;45.102;20.624;2022-09-27T03:21:06;6.90;;;4.25;;
55461;SDS011;41327;45.102;20.624;2022-09-27T03:23:31;5.40;;;4.13;;
55461;SDS011;41327;45.102;20.624;2022-09-27T03:25:57;5.88;;;4.63;;
55461;SDS011;41327;45.102;20.624;2022-09-27T03:28:22;7.45;;;4.90;;
55461;SDS011;41327;45.102;20.624;2022-09-27T03:30:49;5.97;;;4.50;;
55461;SDS011;41327;45.102;20.624;2022-09-27T03:33:14;7.30;;;4.30;;
55461;SDS011;41327;45.102;20.624;2022-09-27T03:35:40;6.03;;;4.47;;
55461;SDS011;41327;45.102;20.624;2022-09-27T03:38:07;7.47;;;4.47;;
55461;SDS011;41327;45.102;20.624;2022-09-27T03:40:33;4.82;;;4.05;;
55461;SDS011;41327;45.102;20.624;2022-09-27T03:42:59;6.07;;;4.15;;
55461;SDS011;41327;45.102;20.624;2022-09-27T03:45:25;8.05;;;5.03;;
55461;SDS011;41327;45.102;20.624;2022-09-27T03:47:51;6.53;;;4.80;;
55461;SDS011;41327;45.102;20.624;2022-09-27T03:50:17;6.72;;;4.65;;
55461;SDS011;41327;45.102;20.624;2022-09-27T03:52:43;7.70;;;4.90;;
55461;SDS011;41327;45.102;20.624;2022-09-27T03:55:09;6.38;;;4.85;;
55461;SDS011;41327;45.102;20.624;2022-09-27T03:57:35;8.60;;;5.07;;
55461;SDS011;41327;45.102;20.624;2022-09-27T04:00:01;6.53;;;5.15;;
55461;SDS011;41327;45.102;20.624;2022-09-27T04:02:27;7.05;;;4.78;;
55461;SDS011;41327;45.102;20.624;2022-09-27T04:04:53;6.90;;;5.10;;
55461;SDS011;41327;45.102;20.624;2022-09-27T04:07:18;8.77;;;5.85;;
55461;SDS011;41327;45.102;20.624;2022-09-27T04:09:44;7.18;;;5.18;;
55461;SDS011;41327;45.102;20.624;2022-09-27T04:12:11;7.10;;;5.38;;
55461;SDS011;41327;45.102;20.624;2022-09-27T04:14:37;8.98;;;5.57;;
55461;SDS011;41327;45.102;20.624;2022-09-27T04:17:03;8.50;;;5.72;;
55461;SDS011;41327;45.102;20.624;2022-09-27T04:19:28;7.07;;;5.43;;
55461;SDS011;41327;45.102;20.624;2022-09-27T04:21:54;8.27;;;4.97;;
55461;SDS011;41327;45.102;20.624;2022-09-27T04:24:19;10.32;;;5.30;;
55461;SDS011;41327;45.102;20.624;2022-09-27T04:26:45;8.55;;;4.82;;
55461;SDS011;41327;45.102;20.624;2022-09-27T04:29:11;6.55;;;4.82;;
55461;SDS011;41327;45.102;20.624;2022-09-27T04:31:37;7.13;;;4.78;;
55461;SDS011;41327;45.102;20.624;2022-09-27T04:34:06;5.60;;;4.70;;
55461;SDS011;41327;45.102;20.624;2022-09-27T04:36:31;6.43;;;4.32;;
55461;SDS011;41327;45.102;20.624;2022-09-27T04:38:59;6.30;;;4.63;;
55461;SDS011;41327;45.102;20.624;2022-09-27T04:41:26;7.95;;;5.18;;
55461;SDS011;41327;45.102;20.624;2022-09-27T04:43:53;7.63;;;5.13;;
55461;SDS011;41327;45.102;20.624;2022-09-27T04:46:19;7.57;;;5.13;;
55461;SDS011;41327;45.102;20.624;2022-09-27T04:48:48;8.18;;;5.93;;
55461;SDS011;41327;45.102;20.624;2022-09-27T04:51:13;7.55;;;5.63;;
55461;SDS011;41327;45.102;20.624;2022-09-27T04:53:41;9.45;;;5.95;;
55461;SDS011;41327;45.102;20.624;2022-09-27T04:56:07;12.27;;;6.28;;
55461;SDS011;41327;45.102;20.624;2022-09-27T04:58:33;12.95;;;6.97;;
55461;SDS011;41327;45.102;20.624;2022-09-27T05:00:59;12.75;;;7.30;;
55461;SDS011;41327;45.102;20.624;2022-09-27T05:03:25;10.35;;;7.45;;
55461;SDS011;41327;45.102;20.624;2022-09-27T05:05:52;12.32;;;7.78;;
55461;SDS011;41327;45.102;20.624;2022-09-27T05:08:18;12.57;;;8.38;;
55461;SDS011;41327;45.102;20.624;2022-09-27T05:10:45;14.43;;;8.80;;
55461;SDS011;41327;45.102;20.624;2022-09-27T05:13:11;14.88;;;9.32;;
55461;SDS011;41327;45.102;20.624;2022-09-27T05:15:37;14.15;;;9.77;;
55461;SDS011;41327;45.102;20.624;2022-09-27T05:18:04;14.00;;;9.80;;
55461;SDS011;41327;45.102;20.624;2022-09-27T05:20:32;16.08;;;10.23;;
55461;SDS011;41327;45.102;20.624;2022-09-27T05:22:59;15.80;;;9.88;;
55461;SDS011;41327;45.102;20.624;2022-09-27T05:25:25;19.98;;;11.65;;
55461;SDS011;41327;45.102;20.624;2022-09-27T05:27:51;18.13;;;10.95;;
55461;SDS011;41327;45.102;20.624;2022-09-27T05:30:18;16.60;;;11.05;;
55461;SDS011;41327;45.102;20.624;2022-09-27T05:32:48;15.85;;;10.77;;
55461;SDS011;41327;45.102;20.624;2022-09-27T05:35:14;17.77;;;11.15;;
55461;SDS011;41327;45.102;20.624;2022-09-27T05:37:42;17.77;;;10.40;;
55461;SDS011;41327;45.102;20.624;2022-09-27T05:40:08;17.92;;;10.90;;
55461;SDS011;41327;45.102;20.624;2022-09-27T05:42:33;20.85;;;11.93;;
55461;SDS011;41327;45.102;20.624;2022-09-27T05:45:03;17.60;;;11.50;;
55461;SDS011;41327;45.102;20.624;2022-09-27T05:47:31;16.38;;;10.63;;
55461;SDS011;41327;45.102;20.624;2022-09-27T05:49:56;15.02;;;10.10;;
55461;SDS011;41327;45.102;20.624;2022-09-27T05:52:22;17.70;;;11.40;;
55461;SDS011;41327;45.102;20.624;2022-09-27T05:54:47;17.70;;;11.50;;
55461;SDS011;41327;45.102;20.624;2022-09-27T05:57:13;18.55;;;11.70;;
55461;SDS011;41327;45.102;20.624;2022-09-27T05:59:38;16.75;;;10.85;;
55461;SDS011;41327;45.102;20.624;2022-09-27T06:02:05;20.25;;;12.25;;
55461;SDS011;41327;45.102;20.624;2022-09-27T06:04:30;16.58;;;10.35;;
55461;SDS011;41327;45.102;20.624;2022-09-27T06:06:56;21.13;;;11.82;;
55461;SDS011;41327;45.102;20.624;2022-09-27T06:09:23;18.05;;;10.85;;
55461;SDS011;41327;45.102;20.624;2022-09-27T06:11:49;19.08;;;11.27;;
55461;SDS011;41327;45.102;20.624;2022-09-27T06:14:15;17.73;;;11.45;;
55461;SDS011;41327;45.102;20.624;2022-09-27T06:16:40;17.73;;;10.32;;
55461;SDS011;41327;45.102;20.624;2022-09-27T06:19:06;18.13;;;11.02;;
55461;SDS011;41327;45.102;20.624;2022-09-27T06:21:31;16.05;;;10.45;;
55461;SDS011;41327;45.102;20.624;2022-09-27T06:23:57;18.58;;;10.77;;
55461;SDS011;41327;45.102;20.624;2022-09-27T06:26:26;17.52;;;11.20;;
55461;SDS011;41327;45.102;20.624;2022-09-27T06:28:52;18.92;;;11.15;;
55461;SDS011;41327;45.102;20.624;2022-09-27T06:31:18;18.33;;;11.30;;
55461;SDS011;41327;45.102;20.624;2022-09-27T06:33:46;18.55;;;11.10;;
55461;SDS011;41327;45.102;20.624;2022-09-27T06:36:14;18.27;;;12.02;;
55461;SDS011;41327;45.102;20.624;2022-09-27T06:38:40;19.02;;;11.43;;
55461;SDS011;41327;45.102;20.624;2022-09-27T06:41:06;16.45;;;10.73;;
55461;SDS011;41327;45.102;20.624;2022-09-27T06:43:33;16.58;;;10.68;;
55461;SDS011;41327;45.102;20.624;2022-09-27T06:45:59;19.52;;;12.07;;
55461;SDS011;41327;45.102;20.624;2022-09-27T06:48:31;15.93;;;10.57;;
55461;SDS011;41327;45.102;20.624;2022-09-27T06:50:57;18.90;;;12.43;;
55461;SDS011;41327;45.102;20.624;2022-09-27T06:53:23;17.75;;;10.88;;
55461;SDS011;41327;45.102;20.624;2022-09-27T06:55:48;17.50;;;11.38;;
55461;SDS011;41327;45.102;20.624;2022-09-27T06:58:15;21.50;;;12.80;;
55461;SDS011;41327;45.102;20.624;2022-09-27T07:01:07;16.65;;;10.48;;
55461;SDS011;41327;45.102;20.624;2022-09-27T07:03:33;18.17;;;11.30;;
55461;SDS011;41327;45.102;20.624;2022-09-27T07:06:02;16.17;;;10.60;;
55461;SDS011;41327;45.102;20.624;2022-09-27T07:08:29;17.02;;;10.40;;
55461;SDS011;41327;45.102;20.624;2022-09-27T07:10:55;16.88;;;11.98;;
55461;SDS011;41327;45.102;20.624;2022-09-27T07:13:26;19.00;;;12.02;;
55461;SDS011;41327;45.102;20.624;2022-09-27T07:15:53;22.77;;;14.52;;
55461;SDS011;41327;45.102;20.624;2022-09-27T07:18:19;19.45;;;12.82;;
55461;SDS011;41327;45.102;20.624;2022-09-27T07:20:44;18.17;;;12.48;;
55461;SDS011;41327;45.102;20.624;2022-09-27T07:23:10;18.75;;;12.30;;
55461;SDS011;41327;45.102;20.624;2022-09-27T07:25:36;21.45;;;14.00;;
55461;SDS011;41327;45.102;20.624;2022-09-27T07:28:03;21.10;;;14.60;;
55461;SDS011;41327;45.102;20.624;2022-09-27T07:30:30;20.00;;;13.43;;
55461;SDS011;41327;45.102;20.624;2022-09-27T07:32:59;19.83;;;13.77;;
55461;SDS011;41327;45.102;20.624;2022-09-27T07:35:26;20.10;;;14.10;;
55461;SDS011;41327;45.102;20.624;2022-09-27T07:37:52;20.52;;;13.85;;
55461;SDS011;41327;45.102;20.624;2022-09-27T07:40:18;21.00;;;14.60;;
55461;SDS011;41327;45.102;20.624;2022-09-27T07:42:44;21.35;;;14.00;;
55461;SDS011;41327;45.102;20.624;2022-09-27T07:45:10;22.17;;;15.00;;
55461;SDS011;41327;45.102;20.624;2022-09-27T07:47:39;21.38;;;14.68;;
55461;SDS011;41327;45.102;20.624;2022-09-27T07:50:06;19.50;;;14.18;;
55461;SDS011;41327;45.102;20.624;2022-09-27T07:52:40;17.95;;;12.63;;
55461;SDS011;41327;45.102;20.624;2022-09-27T07:55:06;15.50;;;12.07;;
55461;SDS011;41327;45.102;20.624;2022-09-27T07:57:33;17.05;;;12.05;;
55461;SDS011;41327;45.102;20.624;2022-09-27T07:59:59;15.93;;;12.20;;
55461;SDS011;41327;45.102;20.624;2022-09-27T08:02:24;12.85;;;10.40;;
55461;SDS011;41327;45.102;20.624;2022-09-27T08:04:50;15.50;;;11.32;;
55461;SDS011;41327;45.102;20.624;2022-09-27T08:07:16;15.25;;;10.88;;
55461;SDS011;41327;45.102;20.624;2022-09-27T08:09:42;13.88;;;10.15;;
55461;SDS011;41327;45.102;20.624;2022-09-27T08:12:07;15.02;;;11.20;;
55461;SDS011;41327;45.102;20.624;2022-09-27T08:14:34;13.75;;;11.02;;
55461;SDS011;41327;45.102;20.624;2022-09-27T08:16:59;14.32;;;10.82;;
55461;SDS011;41327;45.102;20.624;2022-09-27T08:19:25;14.80;;;11.95;;
55461;SDS011;41327;45.102;20.624;2022-09-27T08:21:51;14.38;;;11.20;;
55461;SDS011;41327;45.102;20.624;2022-09-27T08:24:19;17.75;;;12.77;;
55461;SDS011;41327;45.102;20.624;2022-09-27T08:26:46;13.73;;;10.90;;
55461;SDS011;41327;45.102;20.624;2022-09-27T08:29:13;17.63;;;12.38;;
55461;SDS011;41327;45.102;20.624;2022-09-27T08:31:38;16.13;;;12.75;;
55461;SDS011;41327;45.102;20.624;2022-09-27T08:34:03;15.82;;;12.40;;
55461;SDS011;41327;45.102;20.624;2022-09-27T08:36:29;15.50;;;12.32;;
55461;SDS011;41327;45.102;20.624;2022-09-27T08:38:55;19.92;;;11.88;;
55461;SDS011;41327;45.102;20.624;2022-09-27T08:44:28;13.90;;;11.27;;
55461;SDS011;41327;45.102;20.624;2022-09-27T08:47:13;11.73;;;10.40;;
55461;SDS011;41327;45.102;20.624;2022-09-27T08:52:19;12.25;;;10.60;;
55461;SDS011;41327;45.102;20.624;2022-09-27T08:54:47;14.23;;;10.48;;
55461;SDS011;41327;45.102;20.624;2022-09-27T08:57:14;9.23;;;8.32;;
55461;SDS011;41327;45.102;20.624;2022-09-27T08:59:42;12.30;;;8.90;;
55461;SDS011;41327;45.102;20.624;2022-09-27T09:02:18;10.88;;;9.73;;
55461;SDS011;41327;45.102;20.624;2022-09-27T09:04:48;13.43;;;9.63;;
55461;SDS011;41327;45.102;20.624;2022-09-27T09:13:54;10.55;;;8.93;;
55461;SDS011;41327;45.102;20.624;2022-09-27T09:21:38;11.18;;;7.40;;
55461;SDS011;41327;45.102;20.624;2022-09-27T09:24:26;8.25;;;7.20;;
55461;SDS011;41327;45.102;20.624;2022-09-27T09:29:59;9.00;;;6.45;;
55461;SDS011;41327;45.102;20.624;2022-09-27T09:35:17;6.93;;;6.22;;
55461;SDS011;41327;45.102;20.624;2022-09-27T09:37:52;6.28;;;5.63;;
55461;SDS011;41327;45.102;20.624;2022-09-27T09:43:09;7.40;;;5.55;;
55461;SDS011;41327;45.102;20.624;2022-09-27T09:45:44;5.80;;;4.90;;
55461;SDS011;41327;45.102;20.624;2022-09-27T09:50:58;5.20;;;4.70;;
55461;SDS011;41327;45.102;20.624;2022-09-27T09:56:02;5.28;;;4.78;;
55461;SDS011;41327;45.102;20.624;2022-09-27T10:01:16;3.72;;;3.22;;
55461;SDS011;41327;45.102;20.624;2022-09-27T10:03:43;5.93;;;3.50;;
55461;SDS011;41327;45.102;20.624;2022-09-27T10:06:10;3.42;;;3.13;;
55461;SDS011;41327;45.102;20.624;2022-09-27T10:08:36;4.38;;;3.97;;
55461;SDS011;41327;45.102;20.624;2022-09-27T10:11:01;5.70;;;3.78;;
55461;SDS011;41327;45.102;20.624;2022-09-27T10:13:29;4.40;;;3.60;;
55461;SDS011;41327;45.102;20.624;2022-09-27T10:16:07;3.72;;;2.90;;
55461;SDS011;41327;45.102;20.624;2022-09-27T10:18:35;4.85;;;3.08;;
55461;SDS011;41327;45.102;20.624;2022-09-27T10:21:02;3.30;;;3.00;;
55461;SDS011;41327;45.102;20.624;2022-09-27T10:23:31;3.33;;;2.92;;
55461;SDS011;41327;45.102;20.624;2022-09-27T10:25:57;3.90;;;3.00;;
55461;SDS011;41327;45.102;20.624;2022-09-27T10:28:27;3.70;;;3.00;;
55461;SDS011;41327;45.102;20.624;2022-09-27T10:31:19;5.40;;;3.58;;
55461;SDS011;41327;45.102;20.624;2022-09-27T10:36:27;3.90;;;3.03;;
55461;SDS011;41327;45.102;20.624;2022-09-27T10:38:54;3.40;;;3.10;;
55461;SDS011;41327;45.102;20.624;2022-09-27T10:43:59;3.10;;;2.75;;
55461;SDS011;41327;45.102;20.624;2022-09-27T10:46:50;4.13;;;3.72;;
55461;SDS011;41327;45.102;20.624;2022-09-27T10:51:52;4.78;;;4.30;;
55461;SDS011;41327;45.102;20.624;2022-09-27T10:54:20;4.40;;;4.00;;
55461;SDS011;41327;45.102;20.624;2022-09-27T10:56:55;7.28;;;3.78;;
55461;SDS011;41327;45.102;20.624;2022-09-27T10:59:22;4.10;;;3.70;;
55461;SDS011;41327;45.102;20.624;2022-09-27T11:01:48;4.43;;;4.03;;
55461;SDS011;41327;45.102;20.624;2022-09-27T11:04:19;6.13;;;4.05;;
55461;SDS011;41327;45.102;20.624;2022-09-27T11:06:47;4.53;;;4.13;;
55461;SDS011;41327;45.102;20.624;2022-09-27T11:09:18;6.25;;;4.88;;
55461;SDS011;41327;45.102;20.624;2022-09-27T11:11:52;4.60;;;4.20;;
55461;SDS011;41327;45.102;20.624;2022-09-27T11:14:30;4.63;;;4.20;;
55461;SDS011;41327;45.102;20.624;2022-09-27T11:22:32;5.75;;;5.25;;
55461;SDS011;41327;45.102;20.624;2022-09-27T11:30:14;4.80;;;4.40;;
55461;SDS011;41327;45.102;20.624;2022-09-27T11:38:31;5.13;;;4.70;;
55461;SDS011;41327;45.102;20.624;2022-09-27T11:41:31;4.78;;;4.38;;
55461;SDS011;41327;45.102;20.624;2022-09-27T11:47:56;5.25;;;4.75;;
55461;SDS011;41327;45.102;20.624;2022-09-27T11:55:45;7.95;;;4.88;;
55461;SDS011;41327;45.102;20.624;2022-09-27T12:11:30;6.18;;;5.25;;
55461;SDS011;41327;45.102;20.624;2022-09-27T12:14:23;5.10;;;4.60;;
55461;SDS011;41327;45.102;20.624;2022-09-27T12:16:50;6.55;;;5.25;;
55461;SDS011;41327;45.102;20.624;2022-09-27T12:19:18;6.40;;;4.70;;
55461;SDS011;41327;45.102;20.624;2022-09-27T12:21:46;6.72;;;4.40;;
55461;SDS011;41327;45.102;20.624;2022-09-27T12:24:17;9.07;;;5.43;;
55461;SDS011;41327;45.102;20.624;2022-09-27T12:26:47;8.27;;;5.25;;
55461;SDS011;41327;45.102;20.624;2022-09-27T12:29:18;6.93;;;5.68;;
55461;SDS011;41327;45.102;20.624;2022-09-27T12:40:24;5.95;;;4.90;;
55461;SDS011;41327;45.102;20.624;2022-09-27T12:42:56;7.93;;;5.35;;
55461;SDS011;41327;45.102;20.624;2022-09-27T12:45:39;8.13;;;4.88;;
55461;SDS011;41327;45.102;20.624;2022-09-27T12:48:29;7.30;;;5.22;;
55461;SDS011;41327;45.102;20.624;2022-09-27T12:51:00;8.38;;;4.57;;
55461;SDS011;41327;45.102;20.624;2022-09-27T12:56:31;5.70;;;4.55;;
55461;SDS011;41327;45.102;20.624;2022-09-27T13:02:06;5.60;;;4.30;;
55461;SDS011;41327;45.102;20.624;2022-09-27T13:05:05;6.15;;;4.00;;
55461;SDS011;41327;45.102;20.624;2022-09-27T13:13:02;6.85;;;4.32;;
55461;SDS011;41327;45.102;20.624;2022-09-27T13:15:33;6.65;;;4.85;;
55461;SDS011;41327;45.102;20.624;2022-09-27T13:17:59;7.60;;;4.50;;
55461;SDS011;41327;45.102;20.624;2022-09-27T13:22:56;10.52;;;7.68;;
55461;SDS011;41327;45.102;20.624;2022-09-27T13:31:00;17.23;;;8.18;;
55461;SDS011;41327;45.102;20.624;2022-09-27T13:39:41;14.02;;;8.88;;
55461;SDS011;41327;45.102;20.624;2022-09-27T13:47:37;13.02;;;7.78;;
55461;SDS011;41327;45.102;20.624;2022-09-27T14:00:47;12.20;;;6.03;;
55461;SDS011;41327;45.102;20.624;2022-09-27T14:03:21;12.20;;;6.22;;
55461;SDS011;41327;45.102;20.624;2022-09-27T14:05:51;12.52;;;6.55;;
55461;SDS011;41327;45.102;20.624;2022-09-27T14:10:53;12.70;;;6.43;;
55461;SDS011;41327;45.102;20.624;2022-09-27T14:13:20;17.38;;;8.52;;
55461;SDS011;41327;45.102;20.624;2022-09-27T14:15:48;13.02;;;6.40;;
55461;SDS011;41327;45.102;20.624;2022-09-27T14:18:14;15.73;;;6.93;;
55461;SDS011;41327;45.102;20.624;2022-09-27T14:20:44;17.05;;;7.75;;
55461;SDS011;41327;45.102;20.624;2022-09-27T14:23:20;14.45;;;7.53;;
55461;SDS011;41327;45.102;20.624;2022-09-27T14:25:48;14.02;;;7.63;;
55461;SDS011;41327;45.102;20.624;2022-09-27T14:31:14;9.07;;;6.13;;
55461;SDS011;41327;45.102;20.624;2022-09-27T14:33:43;11.38;;;7.13;;
55461;SDS011;41327;45.102;20.624;2022-09-27T14:36:51;11.82;;;7.45;;
55461;SDS011;41327;45.102;20.624;2022-09-27T14:39:24;14.75;;;7.93;;
55461;SDS011;41327;45.102;20.624;2022-09-27T14:41:55;14.75;;;7.55;;
55461;SDS011;41327;45.102;20.624;2022-09-27T14:44:22;12.52;;;6.88;;
55461;SDS011;41327;45.102;20.624;2022-09-27T14:46:54;11.77;;;6.60;;
55461;SDS011;41327;45.102;20.624;2022-09-27T14:49:32;13.17;;;8.30;;
55461;SDS011;41327;45.102;20.624;2022-09-27T14:51:58;11.75;;;6.45;;
55461;SDS011;41327;45.102;20.624;2022-09-27T14:54:24;11.43;;;6.97;;
55461;SDS011;41327;45.102;20.624;2022-09-27T14:56:54;12.82;;;7.53;;
55461;SDS011;41327;45.102;20.624;2022-09-27T14:59:25;13.70;;;7.03;;
55461;SDS011;41327;45.102;20.624;2022-09-27T15:01:57;13.88;;;6.13;;
55461;SDS011;41327;45.102;20.624;2022-09-27T15:04:25;11.55;;;6.68;;
55461;SDS011;41327;45.102;20.624;2022-09-27T15:06:52;9.85;;;6.10;;
55461;SDS011;41327;45.102;20.624;2022-09-27T15:09:19;8.68;;;5.55;;
55461;SDS011;41327;45.102;20.624;2022-09-27T15:11:46;11.30;;;6.55;;
55461;SDS011;41327;45.102;20.624;2022-09-27T15:14:16;14.05;;;6.63;;
55461;SDS011;41327;45.102;20.624;2022-09-27T15:16:46;11.80;;;6.70;;
55461;SDS011;41327;45.102;20.624;2022-09-27T15:19:14;12.43;;;7.15;;
55461;SDS011;41327;45.102;20.624;2022-09-27T15:21:43;11.95;;;7.13;;
55461;SDS011;41327;45.102;20.624;2022-09-27T15:27:00;10.05;;;6.15;;
55461;SDS011;41327;45.102;20.624;2022-09-27T15:29:26;7.45;;;5.20;;
55461;SDS011;41327;45.102;20.624;2022-09-27T15:31:59;9.80;;;5.70;;
55461;SDS011;41327;45.102;20.624;2022-09-27T15:34:27;10.13;;;5.07;;
55461;SDS011;41327;45.102;20.624;2022-09-27T15:36:58;11.15;;;5.45;;
55461;SDS011;41327;45.102;20.624;2022-09-27T15:42:07;9.57;;;5.82;;
55461;SDS011;41327;45.102;20.624;2022-09-27T15:44:47;10.00;;;5.82;;
55461;SDS011;41327;45.102;20.624;2022-09-27T15:52:49;10.40;;;5.25;;
55461;SDS011;41327;45.102;20.624;2022-09-27T15:55:17;8.30;;;5.32;;
55461;SDS011;41327;45.102;20.624;2022-09-27T15:57:48;11.75;;;6.55;;
55461;SDS011;41327;45.102;20.624;2022-09-27T16:00:35;15.13;;;7.90;;
55461;SDS011;41327;45.102;20.624;2022-09-27T16:03:01;10.75;;;6.00;;
55461;SDS011;41327;45.102;20.624;2022-09-27T16:05:27;9.93;;;5.63;;
55461;SDS011;41327;45.102;20.624;2022-09-27T16:07:54;8.48;;;5.88;;
55461;SDS011;41327;45.102;20.624;2022-09-27T16:10:26;7.03;;;4.85;;
55461;SDS011;41327;45.102;20.624;2022-09-27T16:12:55;10.70;;;4.85;;
55461;SDS011;41327;45.102;20.624;2022-09-27T16:15:20;10.55;;;6.57;;
55461;SDS011;41327;45.102;20.624;2022-09-27T16:17:45;9.65;;;6.78;;
55461;SDS011;41327;45.102;20.624;2022-09-27T16:20:18;8.65;;;5.80;;
55461;SDS011;41327;45.102;20.624;2022-09-27T16:22:47;8.00;;;4.95;;
55461;SDS011;41327;45.102;20.624;2022-09-27T16:25:13;7.00;;;4.82;;
55461;SDS011;41327;45.102;20.624;2022-09-27T16:27:39;7.82;;;4.95;;
55461;SDS011;41327;45.102;20.624;2022-09-27T16:30:05;6.68;;;4.68;;
55461;SDS011;41327;45.102;20.624;2022-09-27T16:32:32;7.90;;;5.70;;
55461;SDS011;41327;45.102;20.624;2022-09-27T16:34:58;7.78;;;5.25;;
55461;SDS011;41327;45.102;20.624;2022-09-27T16:37:23;8.30;;;4.15;;
55461;SDS011;41327;45.102;20.624;2022-09-27T16:39:49;6.47;;;4.45;;
55461;SDS011;41327;45.102;20.624;2022-09-27T16:42:14;8.10;;;5.22;;
55461;SDS011;41327;45.102;20.624;2022-09-27T16:44:41;10.02;;;7.18;;
55461;SDS011;41327;45.102;20.624;2022-09-27T16:47:06;10.90;;;7.18;;
55461;SDS011;41327;45.102;20.624;2022-09-27T16:49:32;17.88;;;9.73;;
55461;SDS011;41327;45.102;20.624;2022-09-27T16:52:15;31.05;;;17.38;;
55461;SDS011;41327;45.102;20.624;2022-09-27T16:54:41;12.57;;;6.38;;
55461;SDS011;41327;45.102;20.624;2022-09-27T16:57:07;7.18;;;3.88;;
55461;SDS011;41327;45.102;20.624;2022-09-27T16:59:33;6.57;;;3.42;;
55461;SDS011;41327;45.102;20.624;2022-09-27T17:01:58;5.85;;;3.92;;
55461;SDS011;41327;45.102;20.624;2022-09-27T17:04:24;4.82;;;3.55;;
55461;SDS011;41327;45.102;20.624;2022-09-27T17:06:51;5.05;;;3.40;;
55461;SDS011;41327;45.102;20.624;2022-09-27T17:09:17;6.30;;;4.43;;
55461;SDS011;41327;45.102;20.624;2022-09-27T17:11:43;6.43;;;4.47;;
55461;SDS011;41327;45.102;20.624;2022-09-27T17:14:12;9.45;;;4.25;;
55461;SDS011;41327;45.102;20.624;2022-09-27T17:16:40;6.50;;;3.63;;
55461;SDS011;41327;45.102;20.624;2022-09-27T17:19:05;9.70;;;3.65;;
55461;SDS011;41327;45.102;20.624;2022-09-27T17:21:31;9.68;;;3.78;;
55461;SDS011;41327;45.102;20.624;2022-09-27T17:23:56;8.18;;;3.88;;
55461;SDS011;41327;45.102;20.624;2022-09-27T17:26:22;6.45;;;4.00;;
55461;SDS011;41327;45.102;20.624;2022-09-27T17:28:48;4.55;;;2.60;;
55461;SDS011;41327;45.102;20.624;2022-09-27T17:31:15;5.68;;;2.95;;
55461;SDS011;41327;45.102;20.624;2022-09-27T17:33:43;4.57;;;3.15;;
55461;SDS011;41327;45.102;20.624;2022-09-27T17:36:11;4.97;;;3.20;;
55461;SDS011;41327;45.102;20.624;2022-09-27T17:38:41;5.32;;;3.20;;
55461;SDS011;41327;45.102;20.624;2022-09-27T17:41:08;5.18;;;3.25;;
55461;SDS011;41327;45.102;20.624;2022-09-27T17:43:36;7.07;;;3.28;;
55461;SDS011;41327;45.102;20.624;2022-09-27T17:46:04;10.75;;;4.88;;
55461;SDS011;41327;45.102;20.624;2022-09-27T17:48:30;11.70;;;5.88;;
55461;SDS011;41327;45.102;20.624;2022-09-27T17:51:14;26.63;;;9.40;;
55461;SDS011;41327;45.102;20.624;2022-09-27T17:53:40;8.63;;;4.60;;
55461;SDS011;41327;45.102;20.624;2022-09-27T17:56:06;6.82;;;4.55;;
55461;SDS011;41327;45.102;20.624;2022-09-27T17:58:31;5.88;;;4.00;;
55461;SDS011;41327;45.102;20.624;2022-09-27T18:01:01;4.18;;;2.97;;